Time;durP1;ratioP1;P1;durP2;ratioP2;P2;SDS_P1;SDS_P2;PMS_P1;PMS_P2;Temp;Humidity;BMP_temperature;BMP_pressure;BME280_temperature;BME280_humidity;BME280_pressure;Samples;Min_cycle;Max_cycle;Signal;HPM_P1;HPM_P2
2021/01/29 00:00:31;;;;;;;2.20;1.67;;;7.60;99.90;;;;;;5044494;28;20103;-76
2021/01/29 00:03:00;;;;;;;2.25;1.77;;;7.60;99.90;;;;;;5041585;28;20506;-75
2021/01/29 00:05:32;;;;;;;2.30;1.75;;;7.60;99.90;;;;;;5042688;28;20665;-76
2021/01/29 00:07:58;;;;;;;2.10;1.73;;;7.60;99.90;;;;;;5032223;28;20060;-75
2021/01/29 00:10:25;;;;;;;2.17;1.77;;;7.60;99.90;;;;;;5038862;28;20125;-76
2021/01/29 00:12:54;;;;;;;3.08;2.00;;;7.60;99.90;;;;;;5036403;28;20057;-75
2021/01/29 00:15:22;;;;;;;2.30;2.10;;;7.60;99.90;;;;;;5036869;28;20110;-77
2021/01/29 00:17:52;;;;;;;3.40;2.72;;;7.60;99.90;;;;;;5044432;28;20068;-75
2021/01/29 00:20:26;;;;;;;2.90;2.58;;;7.60;99.90;;;;;;5044043;28;20330;-76
2021/01/29 00:22:56;;;;;;;2.65;2.45;;;7.60;99.90;;;;;;5042932;28;20057;-76
2021/01/29 00:25:36;;;;;;;3.35;2.97;;;7.50;99.90;;;;;;5042268;28;20055;-76
2021/01/29 00:28:04;;;;;;;3.33;3.00;;;7.40;99.90;;;;;;5041310;28;20049;-76
2021/01/29 00:30:31;;;;;;;3.40;3.15;;;7.40;99.90;;;;;;5042609;28;20136;-74
2021/01/29 00:33:00;;;;;;;3.47;3.05;;;7.40;99.90;;;;;;5042392;28;20049;-75
2021/01/29 00:35:30;;;;;;;3.95;3.17;;;7.40;99.90;;;;;;5043638;28;20053;-76
2021/01/29 00:37:58;;;;;;;5.45;3.42;;;7.40;99.90;;;;;;5043278;28;20554;-75
2021/01/29 00:40:25;;;;;;;5.60;4.30;;;7.50;99.90;;;;;;5041760;28;20112;-76
2021/01/29 00:42:52;;;;;;;3.55;2.75;;;7.50;99.90;;;;;;5041180;28;20065;-75
2021/01/29 00:45:22;;;;;;;3.45;3.05;;;7.50;99.90;;;;;;5044530;28;20136;-74
2021/01/29 00:47:48;;;;;;;3.45;2.55;;;7.60;99.90;;;;;;5040922;28;20063;-75
2021/01/29 00:50:17;;;;;;;2.85;2.55;;;7.60;99.90;;;;;;5065379;28;20042;-76
2021/01/29 00:52:46;;;;;;;4.70;2.47;;;7.60;99.90;;;;;;5038769;28;20123;-75
2021/01/29 00:55:15;;;;;;;3.72;2.53;;;7.60;99.90;;;;;;5043883;28;20854;-75
2021/01/29 00:57:42;;;;;;;2.20;2.00;;;7.60;99.90;;;;;;5033255;28;20553;-75
2021/01/29 01:00:14;;;;;;;2.35;1.90;;;7.60;99.90;;;;;;5040887;28;20064;-75
2021/01/29 01:02:41;;;;;;;3.80;2.35;;;7.60;99.90;;;;;;5033187;28;20046;-75
2021/01/29 01:05:10;;;;;;;2.60;2.05;;;7.60;99.90;;;;;;5040508;28;20198;-74
2021/01/29 01:07:36;;;;;;;2.47;2.20;;;7.60;99.90;;;;;;5041481;28;20554;-75
2021/01/29 01:10:04;;;;;;;2.45;1.98;;;7.60;99.90;;;;;;5042447;28;20187;-75
2021/01/29 01:12:32;;;;;;;2.15;1.67;;;7.60;99.90;;;;;;5042660;28;20395;-76
2021/01/29 01:15:01;;;;;;;3.50;2.05;;;7.60;99.90;;;;;;5042465;28;20193;-75
2021/01/29 01:17:32;;;;;;;4.72;2.20;;;7.60;99.90;;;;;;5043621;28;20091;-76
2021/01/29 01:19:59;;;;;;;3.70;2.13;;;7.50;99.90;;;;;;5042313;28;20104;-75
2021/01/29 01:22:27;;;;;;;4.07;1.80;;;7.50;99.90;;;;;;5024200;28;20174;-75
2021/01/29 01:24:54;;;;;;;4.40;2.35;;;7.50;99.90;;;;;;5042999;28;20131;-74
2021/01/29 01:27:24;;;;;;;2.78;2.00;;;7.50;99.90;;;;;;5043285;28;20049;-77
2021/01/29 01:29:50;;;;;;;2.55;2.20;;;7.40;99.90;;;;;;5026701;28;20057;-76
2021/01/29 01:32:16;;;;;;;4.75;2.00;;;7.40;99.90;;;;;;5041205;28;20072;-75
2021/01/29 01:34:43;;;;;;;3.83;2.20;;;7.50;99.90;;;;;;5042096;28;20518;-75
2021/01/29 01:37:10;;;;;;;2.00;1.90;;;7.40;99.90;;;;;;5040994;28;20052;-76
2021/01/29 01:39:36;;;;;;;2.00;1.90;;;7.40;99.90;;;;;;5028787;28;20044;-75
2021/01/29 01:42:04;;;;;;;2.22;1.92;;;7.40;99.90;;;;;;5042623;28;20184;-76
2021/01/29 01:44:37;;;;;;;2.10;1.35;;;7.40;99.90;;;;;;5045709;28;20064;-76
2021/01/29 01:47:18;;;;;;;1.95;1.77;;;7.40;99.90;;;;;;5045076;28;20057;-76
2021/01/29 01:49:48;;;;;;;1.60;1.50;;;7.40;99.90;;;;;;5062965;28;20071;-74
2021/01/29 01:52:37;;;;;;;3.50;1.52;;;7.40;99.90;;;;;;5047205;28;20049;-74
2021/01/29 01:55:13;;;;;;;2.15;1.40;;;7.50;99.90;;;;;;5047021;28;20060;-74
2021/01/29 01:57:42;;;;;;;3.78;1.55;;;7.50;99.90;;;;;;5045868;28;20087;-74
2021/01/29 02:00:14;;;;;;;3.60;1.38;;;7.50;99.90;;;;;;5043547;28;20049;-74
2021/01/29 02:02:49;;;;;;;1.70;1.60;;;7.50;99.90;;;;;;5042833;28;20441;-74
2021/01/29 02:05:24;;;;;;;1.55;1.38;;;7.40;99.90;;;;;;5045437;28;20130;-76
2021/01/29 02:07:57;;;;;;;2.53;1.52;;;7.40;99.90;;;;;;5043939;28;20077;-76
2021/01/29 02:10:24;;;;;;;;;;;7.40;99.90;;;;;;5046456;28;20061;-76
2021/01/29 02:12:51;;;;;;;2.17;1.27;;;7.30;99.90;;;;;;5046222;28;19928;-75
2021/01/29 02:15:20;;;;;;;2.30;1.30;;;7.40;99.90;;;;;;5036154;28;20053;-76
2021/01/29 02:17:46;;;;;;;2.13;1.23;;;7.30;99.90;;;;;;5045797;28;20045;-75
2021/01/29 02:20:33;;;;;;;1.67;1.58;;;7.30;99.90;;;;;;5046091;28;20134;-75
2021/01/29 02:23:18;;;;;;;1.25;1.15;;;7.40;99.90;;;;;;5042947;28;20049;-75
2021/01/29 02:26:16;;;;;;;1.40;1.30;;;7.40;99.90;;;;;;5044384;28;20084;-75
2021/01/29 02:29:20;;;;;;;1.52;1.42;;;7.30;99.90;;;;;;5042869;28;20514;-75
2021/01/29 02:32:06;;;;;;;2.00;1.35;;;7.30;99.90;;;;;;5043735;28;20041;-75
2021/01/29 02:35:03;;;;;;;1.50;1.30;;;7.30;99.90;;;;;;5056218;28;20045;-76
2021/01/29 02:38:00;;;;;;;1.70;1.58;;;7.30;99.90;;;;;;5039546;28;20412;-77
2021/01/29 02:41:07;;;;;;;2.92;1.20;;;7.30;99.90;;;;;;5037982;28;20049;-76
2021/01/29 02:43:58;;;;;;;1.40;1.30;;;7.30;99.90;;;;;;5054141;28;20050;-76
2021/01/29 02:47:13;;;;;;;2.92;1.48;;;7.30;99.90;;;;;;5059995;28;20080;-77
2021/01/29 02:49:52;;;;;;;1.63;1.52;;;7.30;99.90;;;;;;5005114;28;20087;-76
2021/01/29 02:52:36;;;;;;;2.83;1.30;;;7.30;99.90;;;;;;5022997;28;20061;-76
2021/01/29 02:55:15;;;;;;;2.72;1.30;;;7.30;99.90;;;;;;5009894;28;20111;-75
2021/01/29 02:58:06;;;;;;;1.42;1.33;;;7.30;99.90;;;;;;5022361;28;20100;-76
2021/01/29 03:00:47;;;;;;;1.95;1.30;;;7.40;99.90;;;;;;5021293;28;20128;-77
2021/01/29 03:03:41;;;;;;;2.05;1.38;;;7.40;99.90;;;;;;5017756;28;20123;-76
2021/01/29 03:06:36;;;;;;;4.65;1.40;;;7.40;99.90;;;;;;5023379;28;20046;-76
2021/01/29 03:09:24;;;;;;;1.58;1.48;;;7.40;99.90;;;;;;5018180;28;20054;-75
2021/01/29 03:12:07;;;;;;;1.63;1.45;;;7.40;99.90;;;;;;5025350;28;20138;-76
2021/01/29 03:14:50;;;;;;;2.03;1.50;;;7.40;99.90;;;;;;5022707;28;20530;-75
2021/01/29 03:17:29;;;;;;;2.67;1.42;;;7.40;99.90;;;;;;5031305;28;20821;-76
2021/01/29 03:20:11;;;;;;;1.00;1.00;;;7.50;99.90;;;;;;5006202;28;20095;-75
2021/01/29 03:23:12;;;;;;;1.42;1.30;;;7.50;99.90;;;;;;5017352;28;20440;-76
2021/01/29 03:25:45;;;;;;;1.50;1.40;;;7.40;99.90;;;;;;5043792;28;20103;-77
2021/01/29 03:28:23;;;;;;;1.50;1.40;;;7.40;99.90;;;;;;5038763;28;20044;-76
2021/01/29 03:30:53;;;;;;;2.35;1.45;;;7.40;99.90;;;;;;5043004;28;20049;-75
2021/01/29 03:33:25;;;;;;;1.80;1.48;;;7.40;99.90;;;;;;5039994;28;20041;-77
2021/01/29 03:36:09;;;;;;;1.67;1.10;;;7.40;99.90;;;;;;5057273;28;20139;-77
2021/01/29 03:38:45;;;;;;;1.35;1.30;;;7.40;99.90;;;;;;5043568;28;20045;-75
2021/01/29 03:41:31;;;;;;;1.25;1.15;;;7.30;99.90;;;;;;5044755;28;20049;-76
2021/01/29 03:44:12;;;;;;;1.88;1.30;;;7.40;99.90;;;;;;5038980;28;20079;-76
2021/01/29 03:47:16;;;;;;;1.98;1.38;;;7.30;99.90;;;;;;5040171;28;20124;-76
2021/01/29 03:50:06;;;;;;;4.13;1.33;;;7.40;99.90;;;;;;5043530;28;20172;-76
2021/01/29 03:52:51;;;;;;;1.65;1.52;;;7.30;99.90;;;;;;5040816;28;20134;-75
2021/01/29 03:55:31;;;;;;;1.30;1.20;;;7.30;99.90;;;;;;5038642;28;20140;-76
2021/01/29 03:57:58;;;;;;;1.40;1.30;;;7.30;99.90;;;;;;5036477;28;20056;-76
2021/01/29 04:01:00;;;;;;;2.40;1.33;;;7.30;99.90;;;;;;5040503;28;20057;-76
2021/01/29 04:04:01;;;;;;;2.97;1.40;;;7.30;99.90;;;;;;5038735;28;20266;-76
2021/01/29 04:06:34;;;;;;;2.95;1.20;;;7.20;99.90;;;;;;5041198;28;20072;-76
2021/01/29 04:09:06;;;;;;;2.70;1.33;;;7.20;99.90;;;;;;5041596;28;20140;-76
2021/01/29 04:11:53;;;;;;;1.77;1.15;;;7.30;99.90;;;;;;5044348;28;20080;-76
2021/01/29 04:14:31;;;;;;;1.20;1.17;;;7.20;99.90;;;;;;5037963;28;20158;-77
2021/01/29 04:17:02;;;;;;;1.10;1.00;;;7.20;99.90;;;;;;5036858;28;20053;-77
2021/01/29 04:19:34;;;;;;;1.45;1.17;;;7.20;99.90;;;;;;5039288;28;20049;-75
2021/01/29 04:22:14;;;;;;;1.40;0.88;;;7.20;99.90;;;;;;5044432;28;20041;-76
2021/01/29 04:24:48;;;;;;;1.38;1.05;;;7.20;99.90;;;;;;5034579;28;20053;-76
2021/01/29 04:27:18;;;;;;;4.20;1.23;;;7.20;99.90;;;;;;5039404;28;20109;-75
2021/01/29 04:29:56;;;;;;;1.90;1.00;;;7.20;99.90;;;;;;5042816;28;20041;-77
2021/01/29 04:32:25;;;;;;;2.15;1.20;;;7.10;99.90;;;;;;5043074;28;20601;-77
2021/01/29 04:34:57;;;;;;;2.20;1.27;;;7.20;99.90;;;;;;5033188;28;20053;-75
2021/01/29 04:37:32;;;;;;;1.33;1.23;;;7.20;99.90;;;;;;5020016;28;20107;-77
2021/01/29 04:40:02;;;;;;;1.20;1.15;;;7.20;99.90;;;;;;5041978;28;20049;-75
2021/01/29 04:42:39;;;;;;;1.13;1.13;;;7.20;99.90;;;;;;5038824;28;20057;-75
2021/01/29 04:45:39;;;;;;;1.38;1.23;;;7.20;99.90;;;;;;5049224;28;20087;-76
2021/01/29 04:48:20;;;;;;;1.10;1.10;;;7.20;99.90;;;;;;5041524;28;20198;-78
2021/01/29 04:51:31;;;;;;;1.20;1.10;;;7.30;99.90;;;;;;5035848;28;20512;-78
2021/01/29 04:54:34;;;;;;;2.88;1.30;;;7.20;99.90;;;;;;5045748;28;20095;-79
2021/01/29 04:57:11;;;;;;;0.90;0.90;;;7.30;99.90;;;;;;5025066;28;20061;-80
2021/01/29 05:00:10;;;;;;;1.00;1.00;;;7.20;99.90;;;;;;5043947;28;20148;-80
2021/01/29 05:02:42;;;;;;;1.38;1.27;;;7.30;99.90;;;;;;5045173;28;20060;-79
2021/01/29 05:05:32;;;;;;;1.40;1.30;;;7.20;99.90;;;;;;5045133;28;20403;-77
2021/01/29 05:08:07;;;;;;;2.05;1.27;;;7.20;99.90;;;;;;5041216;28;20106;-75
2021/01/29 05:10:53;;;;;;;1.70;1.25;;;7.20;99.90;;;;;;5041690;28;20408;-75
2021/01/29 05:13:52;;;;;;;0.95;0.95;;;7.20;99.90;;;;;;5039890;28;20057;-76
2021/01/29 05:16:37;;;;;;;1.10;1.00;;;7.20;99.90;;;;;;5044746;28;20118;-76
2021/01/29 05:19:33;;;;;;;1.80;1.70;;;7.20;99.90;;;;;;5043290;28;20075;-74
2021/01/29 05:22:42;;;;;;;1.58;0.90;;;7.20;99.90;;;;;;5042016;28;20057;-75
2021/01/29 05:25:17;;;;;;;1.75;1.13;;;7.20;99.90;;;;;;5047305;28;20069;-76
2021/01/29 05:27:55;;;;;;;1.10;1.00;;;7.20;99.90;;;;;;5054503;28;20044;-75
2021/01/29 05:30:50;;;;;;;2.45;1.77;;;7.10;99.90;;;;;;5053350;28;20056;-76
2021/01/29 05:33:36;;;;;;;1.20;0.90;;;7.10;99.90;;;;;;5053472;28;20109;-77
2021/01/29 05:36:35;;;;;;;1.13;1.08;;;7.00;99.90;;;;;;5042938;28;20053;-77
2021/01/29 05:39:31;;;;;;;1.83;1.10;;;7.00;99.90;;;;;;5046800;28;20045;-76
2021/01/29 05:42:06;;;;;;;1.20;1.00;;;7.00;99.90;;;;;;5046541;28;20107;-75
2021/01/29 05:45:04;;;;;;;1.13;1.02;;;6.90;99.90;;;;;;5065047;28;20078;-76
2021/01/29 05:47:40;;;;;;;1.65;0.90;;;6.90;99.90;;;;;;5043392;28;20045;-75
2021/01/29 05:50:25;;;;;;;0.95;0.90;;;6.90;99.90;;;;;;5025705;28;20480;-75
2021/01/29 05:53:12;;;;;;;2.38;1.10;;;6.80;99.90;;;;;;5031949;28;20048;-76
2021/01/29 05:56:06;;;;;;;1.30;1.20;;;6.80;99.90;;;;;;5058485;28;20041;-75
2021/01/29 05:58:46;;;;;;;1.20;1.10;;;6.80;99.90;;;;;;5035761;28;20421;-75
2021/01/29 06:01:38;;;;;;;1.65;1.55;;;6.70;99.90;;;;;;5041443;28;20049;-76
2021/01/29 06:04:25;;;;;;;1.98;1.30;;;6.70;99.90;;;;;;5037178;28;20156;-77
2021/01/29 06:07:03;;;;;;;2.20;1.40;;;6.70;99.90;;;;;;5029055;28;20060;-78
2021/01/29 06:09:39;;;;;;;1.58;1.40;;;6.70;99.90;;;;;;5041398;28;20102;-79
2021/01/29 06:12:15;;;;;;;4.18;1.67;;;6.70;99.90;;;;;;5046008;28;20452;-76
2021/01/29 06:15:06;;;;;;;2.67;1.90;;;6.70;99.90;;;;;;5044691;28;20057;-75
2021/01/29 06:18:00;;;;;;;4.13;2.10;;;6.70;99.90;;;;;;5039573;28;20107;-76
2021/01/29 06:21:01;;;;;;;5.88;2.17;;;6.70;99.90;;;;;;5064158;28;20353;-76
2021/01/29 06:23:58;;;;;;;3.05;2.20;;;6.70;99.90;;;;;;5044800;28;20061;-77
2021/01/29 06:26:55;;;;;;;1.70;1.60;;;6.80;99.90;;;;;;5045692;28;20049;-76
2021/01/29 06:29:45;;;;;;;4.00;1.77;;;7.00;99.90;;;;;;5035869;28;20053;-78
2021/01/29 06:32:54;;;;;;;3.50;1.50;;;7.20;99.90;;;;;;5042796;28;20126;-77
2021/01/29 06:35:30;;;;;;;2.05;1.50;;;7.30;99.90;;;;;;5036502;28;20064;-77
2021/01/29 06:38:15;;;;;;;4.25;1.58;;;7.40;99.90;;;;;;5047861;28;20049;-76
2021/01/29 06:40:54;;;;;;;4.63;1.13;;;7.40;99.90;;;;;;5065063;28;20049;-78
2021/01/29 06:43:23;;;;;;;1.02;0.90;;;7.50;99.90;;;;;;5044851;28;20068;-76
2021/01/29 06:46:19;;;;;;;0.75;0.60;;;7.50;99.90;;;;;;5046575;28;20044;-76
2021/01/29 06:49:19;;;;;;;1.73;1.10;;;7.50;99.90;;;;;;5039290;28;20128;-76
2021/01/29 06:52:02;;;;;;;2.70;1.20;;;7.40;99.90;;;;;;5035897;28;20183;-77
2021/01/29 06:54:47;;;;;;;1.13;1.02;;;7.40;99.90;;;;;;5038802;28;20151;-77
2021/01/29 06:57:51;;;;;;;0.88;0.82;;;7.40;99.90;;;;;;5032022;28;21311;-76
2021/01/29 07:00:49;;;;;;;0.70;0.70;;;7.30;99.90;;;;;;5048205;28;20089;-76
2021/01/29 07:03:25;;;;;;;1.45;0.82;;;7.30;99.90;;;;;;5034320;28;20114;-76
2021/01/29 07:06:17;;;;;;;2.65;1.10;;;7.20;99.90;;;;;;5031534;28;20052;-77
2021/01/29 07:09:14;;;;;;;1.23;0.90;;;7.20;99.90;;;;;;5051082;28;20040;-75
2021/01/29 07:12:03;;;;;;;1.50;1.13;;;7.20;99.90;;;;;;5032189;28;20096;-77
2021/01/29 07:14:54;;;;;;;1.05;0.77;;;7.20;99.90;;;;;;5038699;28;20111;-76
2021/01/29 07:17:44;;;;;;;0.70;0.70;;;7.20;99.90;;;;;;5034819;28;20129;-76
2021/01/29 07:20:29;;;;;;;1.27;1.10;;;7.30;99.90;;;;;;5038439;28;20041;-75
2021/01/29 07:23:25;;;;;;;1.40;1.00;;;7.30;99.90;;;;;;5029976;28;20053;-75
2021/01/29 07:26:08;;;;;;;2.20;1.00;;;7.30;99.90;;;;;;5038318;28;20056;-76
2021/01/29 07:29:03;;;;;;;1.20;1.10;;;7.30;99.90;;;;;;5060911;28;20061;-75
2021/01/29 07:32:03;;;;;;;2.85;1.27;;;7.40;99.90;;;;;;5041365;28;20099;-76
2021/01/29 07:35:05;;;;;;;1.30;0.98;;;7.50;99.90;;;;;;5028637;28;20148;-77
2021/01/29 07:37:55;;;;;;;2.05;0.80;;;7.50;99.90;;;;;;5031278;28;20048;-76
2021/01/29 07:40:56;;;;;;;1.40;0.95;;;7.50;99.90;;;;;;5035721;28;20056;-78
2021/01/29 07:44:00;;;;;;;1.45;1.00;;;7.60;99.90;;;;;;5051759;28;20106;-77
2021/01/29 07:46:56;;;;;;;2.72;1.23;;;7.60;99.90;;;;;;5044746;28;20064;-75
2021/01/29 07:49:35;;;;;;;2.03;1.00;;;7.50;99.90;;;;;;5042635;28;20048;-75
2021/01/29 07:52:38;;;;;;;1.65;1.08;;;7.50;99.90;;;;;;5040637;28;20496;-77
2021/01/29 07:55:24;;;;;;;0.88;0.88;;;7.60;99.90;;;;;;5035463;28;20564;-77
2021/01/29 07:57:53;;;;;;;1.50;1.13;;;7.70;99.90;;;;;;5037926;28;20059;-77
2021/01/29 08:00:51;;;;;;;0.80;0.80;;;7.80;99.90;;;;;;5044331;28;20151;-78
2021/01/29 08:03:55;;;;;;;1.77;0.93;;;7.80;99.90;;;;;;5039161;28;20044;-74
2021/01/29 08:06:43;;;;;;;0.80;0.80;;;7.80;99.90;;;;;;5037259;28;20099;-75
2021/01/29 08:09:29;;;;;;;0.70;0.70;;;7.80;99.90;;;;;;5062977;28;20052;-76
2021/01/29 08:12:02;;;;;;;0.70;0.70;;;7.90;99.90;;;;;;5036666;28;20042;-75
2021/01/29 08:14:33;;;;;;;0.70;0.70;;;7.90;99.90;;;;;;5035413;28;20755;-76
2021/01/29 08:17:35;;;;;;;1.13;0.70;;;8.00;99.90;;;;;;5043223;28;20052;-76
2021/01/29 08:20:26;;;;;;;1.80;1.02;;;7.90;99.90;;;;;;5042959;28;20056;-76
2021/01/29 08:22:58;;;;;;;2.33;1.30;;;7.90;99.90;;;;;;5033120;28;20045;-76
2021/01/29 08:25:44;;;;;;;0.70;0.70;;;7.90;99.90;;;;;;5043934;28;20048;-76
2021/01/29 08:28:23;;;;;;;2.67;0.80;;;7.90;99.90;;;;;;5042173;28;20056;-76
2021/01/29 08:31:07;;;;;;;0.63;0.63;;;8.00;99.90;;;;;;5042669;28;20053;-76
2021/01/29 08:33:45;;;;;;;0.77;0.73;;;8.00;99.90;;;;;;5044625;28;20083;-76
2021/01/29 08:36:34;;;;;;;2.40;0.98;;;8.10;99.90;;;;;;5042089;28;20338;-77
2021/01/29 08:39:19;;;;;;;0.90;0.80;;;8.10;99.90;;;;;;5054706;28;20064;-75
2021/01/29 08:42:24;;;;;;;1.15;0.60;;;8.10;99.90;;;;;;5055750;28;20037;-77
2021/01/29 08:45:21;;;;;;;0.75;0.75;;;8.20;99.90;;;;;;5057130;28;20049;-76
2021/01/29 08:48:09;;;;;;;1.98;0.73;;;8.30;99.90;;;;;;5061578;28;20498;-76
2021/01/29 08:50:53;;;;;;;0.85;0.60;;;8.30;99.90;;;;;;5095830;28;20141;-77
2021/01/29 08:53:53;;;;;;;0.60;0.60;;;8.30;99.90;;;;;;5094071;28;20052;-76
2021/01/29 08:56:41;;;;;;;1.23;0.60;;;8.30;99.90;;;;;;5062942;28;20041;-78
2021/01/29 08:59:15;;;;;;;1.95;0.55;;;8.40;99.90;;;;;;5046331;28;20049;-76
2021/01/29 09:02:11;;;;;;;2.10;0.73;;;8.60;99.90;;;;;;5047281;28;20052;-74
2021/01/29 09:04:50;;;;;;;1.98;0.80;;;9.00;99.90;;;;;;5061083;28;20071;-74
2021/01/29 09:07:33;;;;;;;0.60;0.60;;;9.10;99.90;;;;;;5033463;28;20579;-74
2021/01/29 09:10:08;;;;;;;0.75;0.60;;;9.20;99.90;;;;;;5046585;28;20052;-74
2021/01/29 09:12:35;;;;;;;1.00;0.70;;;9.00;99.90;;;;;;5037517;28;20045;-76
2021/01/29 09:15:13;;;;;;;1.27;0.70;;;9.00;99.90;;;;;;5053374;28;20049;-76
2021/01/29 09:17:47;;;;;;;1.60;0.90;;;9.00;99.90;;;;;;5057877;28;20095;-76
2021/01/29 09:20:27;;;;;;;1.15;0.95;;;8.90;99.90;;;;;;5057206;28;20060;-75
2021/01/29 09:23:06;;;;;;;1.48;0.73;;;8.90;99.90;;;;;;5046929;28;20103;-76
2021/01/29 09:25:54;;;;;;;3.20;1.08;;;9.20;99.90;;;;;;5058658;28;20077;-76
2021/01/29 09:28:33;;;;;;;6.15;1.70;;;10.00;99.90;;;;;;5044323;28;20083;-75
2021/01/29 09:31:10;;;;;;;2.05;0.93;;;10.70;99.90;;;;;;5064620;28;20052;-74
2021/01/29 09:33:42;;;;;;;3.00;1.17;;;10.90;99.90;;;;;;5066115;28;20037;-76
2021/01/29 09:36:27;;;;;;;4.53;1.50;;;10.80;99.90;;;;;;5065626;28;20025;-76
2021/01/29 09:39:08;;;;;;;3.70;1.80;;;10.40;99.90;;;;;;5062135;28;20064;-75
2021/01/29 09:42:14;;;;;;;5.88;1.73;;;9.90;99.90;;;;;;5040750;28;20555;-74
2021/01/29 09:44:48;;;;;;;4.53;1.30;;;9.50;99.90;;;;;;5032026;28;20052;-74
2021/01/29 09:47:22;;;;;;;5.10;1.55;;;9.10;99.90;;;;;;5037718;28;20107;-73
2021/01/29 09:49:59;;;;;;;5.72;1.67;;;8.80;99.90;;;;;;5039786;28;20049;-73
2021/01/29 09:52:51;;;;;;;3.05;1.48;;;8.40;99.90;;;;;;5040810;28;20348;-75
2021/01/29 09:55:31;;;;;;;3.45;1.27;;;8.20;99.90;;;;;;5042349;28;20072;-75
2021/01/29 09:58:21;;;;;;;4.43;1.75;;;8.20;99.90;;;;;;5043107;28;20053;-75
2021/01/29 10:01:12;;;;;;;4.45;1.38;;;8.10;99.90;;;;;;5033535;28;20053;-75
2021/01/29 10:04:01;;;;;;;2.92;1.20;;;8.10;99.90;;;;;;5049609;28;20397;-74
2021/01/29 10:06:32;;;;;;;1.17;1.05;;;7.90;99.90;;;;;;5026838;28;20234;-75
2021/01/29 10:09:08;;;;;;;1.30;0.80;;;7.80;99.90;;;;;;5046622;28;20045;-75
2021/01/29 10:11:59;;;;;;;1.25;0.90;;;7.80;99.90;;;;;;5046446;28;20123;-75
2021/01/29 10:14:32;;;;;;;1.95;0.98;;;8.20;99.90;;;;;;5046356;28;20044;-76
2021/01/29 10:17:16;;;;;;;4.97;1.10;;;8.50;99.90;;;;;;5050901;28;20051;-76
2021/01/29 10:20:01;;;;;;;2.97;0.80;;;8.40;99.90;;;;;;5045619;28;20087;-73
2021/01/29 10:22:42;;;;;;;1.98;0.90;;;8.20;99.90;;;;;;5045481;28;20049;-77
2021/01/29 10:25:21;;;;;;;1.70;1.00;;;8.00;99.90;;;;;;5056795;28;20048;-75
2021/01/29 10:27:54;;;;;;;2.25;0.93;;;8.20;99.90;;;;;;5033210;28;20156;-75
2021/01/29 10:30:37;;;;;;;3.47;1.05;;;8.70;99.90;;;;;;5045545;28;20713;-74
2021/01/29 10:33:45;;;;;;;3.13;0.90;;;9.30;99.90;;;;;;5031817;28;20053;-74
2021/01/29 10:36:27;;;;;;;2.53;1.33;;;9.40;99.90;;;;;;5044498;28;20045;-75
2021/01/29 10:39:09;;;;;;;1.00;0.77;;;9.90;99.90;;;;;;5037459;28;20049;-73
2021/01/29 10:41:47;;;;;;;4.78;1.13;;;10.90;99.90;;;;;;5046126;28;20087;-74
2021/01/29 10:44:42;;;;;;;4.82;1.33;;;10.80;99.90;;;;;;5038851;28;20073;-74
2021/01/29 10:47:26;;;;;;;6.03;1.40;;;10.80;99.90;;;;;;5049946;28;20121;-74
2021/01/29 10:50:08;;;;;;;3.67;1.38;;;10.70;99.90;;;;;;5029582;28;20042;-75
2021/01/29 10:52:41;;;;;;;2.67;1.48;;;10.40;99.90;;;;;;5040591;28;20077;-74
2021/01/29 10:55:19;;;;;;;3.70;1.20;;;9.90;99.90;;;;;;5045883;28;20041;-74
2021/01/29 10:58:18;;;;;;;5.70;1.83;;;9.60;99.90;;;;;;5047872;28;20102;-74
2021/01/29 11:00:57;;;;;;;7.85;1.83;;;9.30;99.90;;;;;;5033669;28;20045;-76
2021/01/29 11:04:06;;;;;;;7.50;2.10;;;9.10;99.90;;;;;;5036026;28;20037;-76
2021/01/29 11:07:15;;;;;;;7.88;2.67;;;8.70;99.90;;;;;;5025956;28;20163;-75
2021/01/29 11:09:53;;;;;;;6.50;1.88;;;8.60;99.90;;;;;;5026167;28;20546;-74
2021/01/29 11:12:26;;;;;;;7.97;2.08;;;8.50;99.90;;;;;;5045288;28;20524;-75
2021/01/29 11:15:10;;;;;;;8.57;1.77;;;8.50;99.90;;;;;;5045499;28;20075;-76
2021/01/29 11:17:44;;;;;;;5.53;1.52;;;8.40;99.90;;;;;;5046617;28;20186;-74
2021/01/29 11:20:23;;;;;;;3.80;1.52;;;8.30;99.90;;;;;;5043781;28;20052;-75
2021/01/29 11:23:21;;;;;;;5.63;1.30;;;8.20;99.90;;;;;;5044357;28;20479;-75
2021/01/29 11:25:54;;;;;;;7.38;1.40;;;8.10;99.90;;;;;;5038106;28;20531;-75
2021/01/29 11:28:29;;;;;;;4.28;1.27;;;8.20;99.90;;;;;;5042734;28;20076;-76
2021/01/29 11:31:10;;;;;;;3.40;1.35;;;8.20;99.90;;;;;;5040358;28;20045;-74
2021/01/29 11:33:44;;;;;;;4.45;1.42;;;8.30;99.90;;;;;;5043846;28;20051;-75
2021/01/29 11:36:19;;;;;;;4.00;1.38;;;8.20;99.90;;;;;;5044975;28;20052;-75
2021/01/29 11:39:04;;;;;;;4.25;1.20;;;8.20;99.90;;;;;;5044463;28;20052;-76
2021/01/29 11:41:46;;;;;;;5.18;1.55;;;8.10;99.90;;;;;;5044749;28;20049;-77
2021/01/29 11:44:41;;;;;;;6.07;1.48;;;8.20;99.90;;;;;;5038397;28;20111;-77
2021/01/29 11:47:19;;;;;;;5.65;1.38;;;8.40;99.90;;;;;;5044428;28;20045;-76
2021/01/29 11:50:04;;;;;;;4.38;1.50;;;8.50;99.90;;;;;;5044274;28;20130;-76
2021/01/29 11:52:53;;;;;;;3.28;1.50;;;8.60;99.90;;;;;;5047293;28;20047;-75
2021/01/29 11:55:31;;;;;;;7.43;2.42;;;8.40;99.90;;;;;;5045161;28;20049;-76
2021/01/29 11:58:21;;;;;;;6.50;1.75;;;8.30;99.90;;;;;;5036661;28;20475;-75
2021/01/29 12:00:59;;;;;;;6.32;1.85;;;8.30;99.90;;;;;;5030811;28;20488;-76
2021/01/29 12:03:54;;;;;;;10.88;1.77;;;8.40;99.90;;;;;;5043420;28;20528;-76
2021/01/29 12:06:46;;;;;;;7.93;2.05;;;8.40;99.90;;;;;;5027115;28;20049;-76
2021/01/29 12:09:25;;;;;;;;;;;8.40;99.90;;;;;;5023860;28;20492;-75
2021/01/29 12:11:57;;;;;;;7.72;1.38;;;8.50;99.90;;;;;;5030881;28;19928;-75
2021/01/29 12:14:50;;;;;;;5.85;1.60;;;8.60;99.90;;;;;;5044552;28;20605;-76
2021/01/29 12:17:27;;;;;;;7.07;1.95;;;8.80;99.90;;;;;;5045154;28;20136;-75
2021/01/29 12:20:04;;;;;;;9.63;2.00;;;8.80;99.90;;;;;;5040794;28;20136;-75
2021/01/29 12:22:34;;;;;;;7.57;1.75;;;8.80;99.90;;;;;;5043216;28;20052;-75
2021/01/29 12:25:00;;;;;;;5.95;2.05;;;8.80;99.90;;;;;;5031268;28;20128;-75
2021/01/29 12:28:01;;;;;;;6.25;1.52;;;8.70;99.90;;;;;;5044277;28;20447;-75
2021/01/29 12:30:38;;;;;;;8.60;1.85;;;8.70;99.90;;;;;;5043103;28;20416;-75
2021/01/29 12:33:22;;;;;;;4.65;1.40;;;8.70;99.90;;;;;;5043497;28;20052;-75
2021/01/29 12:35:54;;;;;;;10.10;1.92;;;8.70;99.90;;;;;;5033944;28;20731;-75
2021/01/29 12:38:37;;;;;;;5.70;1.60;;;8.70;99.90;;;;;;5043534;28;20114;-75
2021/01/29 12:41:41;;;;;;;8.02;2.20;;;8.70;99.90;;;;;;5033378;28;20850;-74
2021/01/29 12:44:17;;;;;;;7.38;1.58;;;8.40;99.90;;;;;;5042161;28;20045;-76
2021/01/29 12:47:06;;;;;;;6.55;2.08;;;8.30;99.90;;;;;;5040293;28;20037;-75
2021/01/29 12:49:56;;;;;;;4.95;0.90;;;8.10;99.90;;;;;;5039528;28;20037;-75
2021/01/29 12:52:51;;;;;;;4.75;1.38;;;7.90;99.90;;;;;;5043206;28;20057;-75
2021/01/29 12:55:27;;;;;;;2.78;1.10;;;7.70;99.90;;;;;;5053056;28;20064;-75
2021/01/29 12:58:04;;;;;;;4.00;1.00;;;7.60;99.90;;;;;;5039338;28;20063;-75
2021/01/29 13:00:41;;;;;;;7.28;3.28;;;7.60;99.90;;;;;;5038125;28;20068;-75
2021/01/29 13:03:51;;;;;;;4.70;1.50;;;7.60;99.90;;;;;;5049767;28;20539;-75
2021/01/29 13:06:45;;;;;;;8.48;1.20;;;7.60;99.90;;;;;;5024117;28;20058;-76
2021/01/29 13:09:39;;;;;;;4.13;1.00;;;7.40;99.90;;;;;;5031362;28;20045;-76
2021/01/29 13:12:20;;;;;;;1.40;0.93;;;7.30;99.90;;;;;;5029748;28;20060;-76
2021/01/29 13:15:18;;;;;;;6.68;1.20;;;7.30;99.90;;;;;;5052181;28;20049;-76
2021/01/29 13:17:50;;;;;;;2.60;1.20;;;7.40;99.90;;;;;;5038799;28;20106;-77
2021/01/29 13:20:24;;;;;;;3.65;1.77;;;7.50;99.90;;;;;;5042682;28;20332;-76
2021/01/29 13:22:57;;;;;;;3.45;1.40;;;7.50;99.90;;;;;;5042894;28;20487;-77
2021/01/29 13:25:30;;;;;;;3.65;1.23;;;7.60;99.90;;;;;;5042525;28;20048;-77
2021/01/29 13:28:04;;;;;;;2.33;1.13;;;7.60;99.90;;;;;;5042047;28;20048;-77
2021/01/29 13:30:36;;;;;;;5.60;1.27;;;7.60;99.90;;;;;;5042970;28;20048;-77
2021/01/29 13:33:25;;;;;;;8.25;2.95;;;7.60;99.90;;;;;;5036900;28;20068;-76
2021/01/29 13:36:16;;;;;;;5.50;1.50;;;7.90;99.90;;;;;;5047559;28;20056;-76
2021/01/29 13:38:43;;;;;;;2.22;1.10;;;8.30;99.90;;;;;;5047627;28;20458;-77
2021/01/29 13:41:16;;;;;;;4.07;1.10;;;8.70;99.90;;;;;;5047676;28;20071;-75
2021/01/29 13:43:45;;;;;;;3.35;1.60;;;8.60;99.90;;;;;;5045938;28;20041;-77
2021/01/29 13:46:30;;;;;;;1.98;0.90;;;8.90;99.90;;;;;;5047698;28;20056;-76
2021/01/29 13:49:28;;;;;;;2.25;0.85;;;8.90;99.90;;;;;;5041049;28;20867;-75
2021/01/29 13:51:58;;;;;;;4.78;1.33;;;8.80;99.90;;;;;;5048169;28;20140;-76
2021/01/29 13:54:28;;;;;;;2.78;1.10;;;8.70;99.90;;;;;;5046962;28;20451;-76
2021/01/29 13:57:05;;;;;;;2.90;1.10;;;8.70;99.90;;;;;;5046742;28;20041;-76
2021/01/29 13:59:50;;;;;;;2.00;1.00;;;9.20;99.90;;;;;;5047000;28;20041;-76
2021/01/29 14:02:38;;;;;;;5.20;1.00;;;9.60;99.90;;;;;;5047825;28;20105;-75
2021/01/29 14:05:37;;;;;;;3.08;1.48;;;10.10;99.90;;;;;;5036107;28;20058;-76
2021/01/29 14:08:08;;;;;;;1.50;0.95;;;10.30;99.90;;;;;;5052775;28;20091;-75
2021/01/29 14:10:39;;;;;;;2.47;1.05;;;9.70;99.90;;;;;;5033451;28;20058;-74
2021/01/29 14:13:25;;;;;;;1.98;1.27;;;9.40;99.90;;;;;;5033916;28;20124;-74
2021/01/29 14:16:20;;;;;;;1.75;1.10;;;9.10;99.90;;;;;;5038659;28;20407;-75